sensor_id;sensor_type;location;lat;lon;timestamp;pressure;altitude;pressure_sealevel;temperature;humidity
65013;BME280;51715;39.432;-77.518;2022-09-14T04:03:56;99382.76;;;22.11;34.84
65013;BME280;51715;39.432;-77.518;2022-09-14T04:06:24;99387.30;;;22.31;34.44
65013;BME280;51715;39.432;-77.518;2022-09-14T04:08:53;99386.70;;;22.42;34.05
65013;BME280;51715;39.432;-77.518;2022-09-14T04:11:24;99388.45;;;22.73;33.71
65013;BME280;51715;39.432;-77.518;2022-09-14T04:13:53;99388.83;;;22.86;33.89
65013;BME280;51715;39.432;-77.518;2022-09-14T04:16:22;99391.05;;;22.62;34.38
65013;BME280;51715;39.432;-77.518;2022-09-14T04:18:50;99392.73;;;22.67;34.80
65013;BME280;51715;39.432;-77.518;2022-09-14T04:21:20;99394.43;;;22.54;35.16
65013;BME280;51715;39.432;-77.518;2022-09-14T04:23:52;99396.43;;;22.36;35.08
65013;BME280;51715;39.432;-77.518;2022-09-14T04:26:22;99396.04;;;22.54;35.02
65013;BME280;51715;39.432;-77.518;2022-09-14T04:28:52;99397.74;;;22.39;35.43
65013;BME280;51715;39.432;-77.518;2022-09-14T04:31:23;99398.77;;;22.34;35.52
65013;BME280;51715;39.432;-77.518;2022-09-14T04:33:52;99399.85;;;22.30;35.41
65013;BME280;51715;39.432;-77.518;2022-09-14T04:36:22;99405.69;;;22.19;35.49
65013;BME280;51715;39.432;-77.518;2022-09-14T04:38:53;99406.32;;;22.02;35.48
65013;BME280;51715;39.432;-77.518;2022-09-14T04:41:22;99404.51;;;22.27;35.37
65013;BME280;51715;39.432;-77.518;2022-09-14T04:43:51;99402.36;;;22.49;35.35
65013;BME280;51715;39.432;-77.518;2022-09-14T04:46:22;99401.15;;;22.24;35.63
65013;BME280;51715;39.432;-77.518;2022-09-14T04:48:51;99402.08;;;21.98;35.79
65013;BME280;51715;39.432;-77.518;2022-09-14T04:51:21;99407.04;;;22.09;36.09
65013;BME280;51715;39.432;-77.518;2022-09-14T04:53:51;99409.78;;;22.01;36.56
65013;BME280;51715;39.432;-77.518;2022-09-14T04:56:20;99414.05;;;21.91;36.96
65013;BME280;51715;39.432;-77.518;2022-09-14T04:58:50;99417.64;;;21.83;36.41
65013;BME280;51715;39.432;-77.518;2022-09-14T05:01:21;99418.26;;;22.05;37.10
65013;BME280;51715;39.432;-77.518;2022-09-14T05:03:50;99426.67;;;22.09;37.03
65013;BME280;51715;39.432;-77.518;2022-09-14T05:06:20;99430.51;;;22.03;37.01
65013;BME280;51715;39.432;-77.518;2022-09-14T05:08:50;99432.90;;;21.65;37.12
65013;BME280;51715;39.432;-77.518;2022-09-14T05:11:20;99433.08;;;21.86;37.63
65013;BME280;51715;39.432;-77.518;2022-09-14T05:13:50;99435.23;;;21.82;37.64
65013;BME280;51715;39.432;-77.518;2022-09-14T05:16:20;99439.65;;;21.59;37.47
65013;BME280;51715;39.432;-77.518;2022-09-14T05:18:51;99442.53;;;21.53;37.29
65013;BME280;51715;39.432;-77.518;2022-09-14T05:21:21;99442.77;;;21.64;37.32
65013;BME280;51715;39.432;-77.518;2022-09-14T05:23:54;99437.88;;;21.56;37.38
65013;BME280;51715;39.432;-77.518;2022-09-14T05:26:22;99436.23;;;21.23;37.89
65013;BME280;51715;39.432;-77.518;2022-09-14T05:28:52;99431.21;;;21.03;37.62
65013;BME280;51715;39.432;-77.518;2022-09-14T05:31:22;99428.85;;;21.15;37.88
65013;BME280;51715;39.432;-77.518;2022-09-14T05:33:50;99427.47;;;21.77;37.80
65013;BME280;51715;39.432;-77.518;2022-09-14T05:36:19;99423.50;;;21.33;38.09
65013;BME280;51715;39.432;-77.518;2022-09-14T05:38:48;99425.70;;;21.37;38.39
65013;BME280;51715;39.432;-77.518;2022-09-14T05:41:17;99428.62;;;21.40;37.83
65013;BME280;51715;39.432;-77.518;2022-09-14T05:43:45;99426.68;;;21.73;37.81
65013;BME280;51715;39.432;-77.518;2022-09-14T05:46:16;99424.80;;;21.50;37.35
65013;BME280;51715;39.432;-77.518;2022-09-14T05:48:44;99425.20;;;21.52;37.76
65013;BME280;51715;39.432;-77.518;2022-09-14T05:51:14;99426.98;;;21.54;37.82
65013;BME280;51715;39.432;-77.518;2022-09-14T05:53:46;99431.30;;;21.03;38.49
65013;BME280;51715;39.432;-77.518;2022-09-14T05:56:16;99431.80;;;21.39;38.77
65013;BME280;51715;39.432;-77.518;2022-09-14T05:58:45;99434.17;;;19.76;41.13
65013;BME280;51715;39.432;-77.518;2022-09-14T06:01:14;99435.80;;;20.24;40.87
65013;BME280;51715;39.432;-77.518;2022-09-14T06:03:44;99439.44;;;20.36;41.47
65013;BME280;51715;39.432;-77.518;2022-09-14T06:06:15;99441.81;;;19.93;41.27
65013;BME280;51715;39.432;-77.518;2022-09-14T06:08:45;99439.61;;;20.04;40.39
65013;BME280;51715;39.432;-77.518;2022-09-14T06:11:17;99439.83;;;20.21;40.14
65013;BME280;51715;39.432;-77.518;2022-09-14T06:13:46;99441.03;;;20.32;40.15
65013;BME280;51715;39.432;-77.518;2022-09-14T06:16:16;99442.15;;;19.93;41.41
65013;BME280;51715;39.432;-77.518;2022-09-14T06:18:45;99444.05;;;20.09;41.09
65013;BME280;51715;39.432;-77.518;2022-09-14T06:21:15;99446.39;;;19.88;41.15
65013;BME280;51715;39.432;-77.518;2022-09-14T06:23:44;99449.53;;;19.47;42.01
65013;BME280;51715;39.432;-77.518;2022-09-14T06:26:12;99447.52;;;19.77;41.98
65013;BME280;51715;39.432;-77.518;2022-09-14T06:28:40;99448.43;;;19.84;41.65
65013;BME280;51715;39.432;-77.518;2022-09-14T06:31:12;99449.21;;;20.19;41.69
65013;BME280;51715;39.432;-77.518;2022-09-14T06:33:43;99451.05;;;20.15;41.70
65013;BME280;51715;39.432;-77.518;2022-09-14T06:36:15;99458.01;;;20.15;41.61
65013;BME280;51715;39.432;-77.518;2022-09-14T06:38:44;99463.54;;;20.31;41.69
65013;BME280;51715;39.432;-77.518;2022-09-14T06:41:13;99467.71;;;20.15;41.23
65013;BME280;51715;39.432;-77.518;2022-09-14T06:43:43;99468.10;;;19.84;41.61
65013;BME280;51715;39.432;-77.518;2022-09-14T06:46:14;99460.63;;;20.10;40.72
65013;BME280;51715;39.432;-77.518;2022-09-14T06:48:46;99460.34;;;20.03;40.55
65013;BME280;51715;39.432;-77.518;2022-09-14T06:51:16;99459.89;;;20.36;40.81
65013;BME280;51715;39.432;-77.518;2022-09-14T06:53:46;99453.55;;;20.15;41.08
65013;BME280;51715;39.432;-77.518;2022-09-14T06:56:16;99452.37;;;19.28;42.82
65013;BME280;51715;39.432;-77.518;2022-09-14T06:58:45;99449.64;;;19.51;42.54
65013;BME280;51715;39.432;-77.518;2022-09-14T07:01:16;99446.90;;;19.81;41.93
65013;BME280;51715;39.432;-77.518;2022-09-14T07:03:45;99447.55;;;19.64;41.60
65013;BME280;51715;39.432;-77.518;2022-09-14T07:06:15;99444.67;;;19.94;41.61
65013;BME280;51715;39.432;-77.518;2022-09-14T07:08:44;99444.70;;;20.11;41.20
65013;BME280;51715;39.432;-77.518;2022-09-14T07:11:14;99444.59;;;19.72;41.18
65013;BME280;51715;39.432;-77.518;2022-09-14T07:13:43;99445.96;;;20.02;40.81
65013;BME280;51715;39.432;-77.518;2022-09-14T07:16:11;99443.15;;;20.01;40.39
65013;BME280;51715;39.432;-77.518;2022-09-14T07:18:40;99445.03;;;20.01;40.36
65013;BME280;51715;39.432;-77.518;2022-09-14T07:21:10;99444.47;;;20.05;40.36
65013;BME280;51715;39.432;-77.518;2022-09-14T07:23:40;99446.82;;;20.09;40.34
65013;BME280;51715;39.432;-77.518;2022-09-14T07:26:11;99449.34;;;19.92;40.07
65013;BME280;51715;39.432;-77.518;2022-09-14T07:28:41;99447.09;;;20.27;39.82
65013;BME280;51715;39.432;-77.518;2022-09-14T07:31:16;99446.22;;;20.36;39.81
65013;BME280;51715;39.432;-77.518;2022-09-14T07:33:44;99444.66;;;20.38;39.56
65013;BME280;51715;39.432;-77.518;2022-09-14T07:36:14;99440.83;;;20.13;39.61
65013;BME280;51715;39.432;-77.518;2022-09-14T07:38:43;99438.40;;;20.29;40.20
65013;BME280;51715;39.432;-77.518;2022-09-14T07:41:10;99444.13;;;20.02;40.08
65013;BME280;51715;39.432;-77.518;2022-09-14T07:43:38;99447.85;;;20.18;40.22
65013;BME280;51715;39.432;-77.518;2022-09-14T07:46:06;99451.58;;;19.99;40.06
65013;BME280;51715;39.432;-77.518;2022-09-14T07:48:35;99448.41;;;19.91;40.15
65013;BME280;51715;39.432;-77.518;2022-09-14T07:51:05;99451.50;;;20.31;39.82
65013;BME280;51715;39.432;-77.518;2022-09-14T07:53:37;99452.88;;;20.08;39.72
65013;BME280;51715;39.432;-77.518;2022-09-14T07:56:07;99456.04;;;20.10;39.72
65013;BME280;51715;39.432;-77.518;2022-09-14T07:58:36;99457.35;;;20.00;40.02
65013;BME280;51715;39.432;-77.518;2022-09-14T08:01:06;99454.62;;;20.00;40.10
65013;BME280;51715;39.432;-77.518;2022-09-14T08:03:36;99459.28;;;20.48;40.09
65013;BME280;51715;39.432;-77.518;2022-09-14T08:06:06;99457.82;;;19.95;40.31
65013;BME280;51715;39.432;-77.518;2022-09-14T08:08:37;99461.39;;;20.26;40.15
65013;BME280;51715;39.432;-77.518;2022-09-14T08:11:08;99466.16;;;20.25;40.88
65013;BME280;51715;39.432;-77.518;2022-09-14T08:13:38;99472.15;;;20.01;40.77
65013;BME280;51715;39.432;-77.518;2022-09-14T08:16:08;99474.14;;;20.01;40.84
65013;BME280;51715;39.432;-77.518;2022-09-14T08:18:38;99478.28;;;20.03;40.32
65013;BME280;51715;39.432;-77.518;2022-09-14T08:21:08;99478.46;;;19.92;39.95
65013;BME280;51715;39.432;-77.518;2022-09-14T08:23:37;99475.87;;;19.78;40.14
65013;BME280;51715;39.432;-77.518;2022-09-14T08:26:08;99477.72;;;19.66;40.32
65013;BME280;51715;39.432;-77.518;2022-09-14T08:28:37;99480.67;;;20.02;40.53
65013;BME280;51715;39.432;-77.518;2022-09-14T08:31:08;99486.46;;;19.59;41.06
65013;BME280;51715;39.432;-77.518;2022-09-14T08:33:39;99493.36;;;19.77;41.44
65013;BME280;51715;39.432;-77.518;2022-09-14T08:36:08;99490.81;;;19.52;41.59
65013;BME280;51715;39.432;-77.518;2022-09-14T08:38:37;99488.95;;;19.64;41.36
65013;BME280;51715;39.432;-77.518;2022-09-14T08:41:15;99485.78;;;19.92;40.90
65013;BME280;51715;39.432;-77.518;2022-09-14T08:43:45;99482.37;;;19.91;40.99
65013;BME280;51715;39.432;-77.518;2022-09-14T08:46:25;99479.61;;;19.72;40.91
65013;BME280;51715;39.432;-77.518;2022-09-14T08:48:54;99479.23;;;19.76;41.24
65013;BME280;51715;39.432;-77.518;2022-09-14T08:51:23;99484.38;;;20.00;41.31
65013;BME280;51715;39.432;-77.518;2022-09-14T08:53:52;99490.97;;;19.80;41.18
65013;BME280;51715;39.432;-77.518;2022-09-14T08:56:25;99498.74;;;20.07;41.02
65013;BME280;51715;39.432;-77.518;2022-09-14T08:59:16;99495.36;;;19.90;40.99
65013;BME280;51715;39.432;-77.518;2022-09-14T09:01:55;99489.25;;;19.87;40.86
65013;BME280;51715;39.432;-77.518;2022-09-14T09:04:32;99489.67;;;20.01;40.95
65013;BME280;51715;39.432;-77.518;2022-09-14T09:07:09;99493.71;;;19.84;41.49
65013;BME280;51715;39.432;-77.518;2022-09-14T09:09:43;99495.77;;;19.85;41.32
65013;BME280;51715;39.432;-77.518;2022-09-14T09:12:15;99496.76;;;19.67;41.19
65013;BME280;51715;39.432;-77.518;2022-09-14T09:14:48;99496.05;;;19.92;40.82
65013;BME280;51715;39.432;-77.518;2022-09-14T09:17:21;99503.22;;;19.74;41.00
65013;BME280;51715;39.432;-77.518;2022-09-14T09:19:59;99509.05;;;19.99;41.14
65013;BME280;51715;39.432;-77.518;2022-09-14T09:22:34;99515.01;;;20.00;41.13
65013;BME280;51715;39.432;-77.518;2022-09-14T09:25:18;99520.18;;;19.59;40.79
65013;BME280;51715;39.432;-77.518;2022-09-14T09:27:47;99529.32;;;19.94;40.81
65013;BME280;51715;39.432;-77.518;2022-09-14T09:30:16;99533.21;;;19.73;41.39
65013;BME280;51715;39.432;-77.518;2022-09-14T09:32:46;99538.69;;;19.49;41.31
65013;BME280;51715;39.432;-77.518;2022-09-14T09:35:18;99538.59;;;19.45;41.67
65013;BME280;51715;39.432;-77.518;2022-09-14T09:37:49;99541.31;;;19.23;41.56
65013;BME280;51715;39.432;-77.518;2022-09-14T09:40:19;99544.05;;;19.28;41.49
65013;BME280;51715;39.432;-77.518;2022-09-14T09:43:10;99547.15;;;19.30;41.19
65013;BME280;51715;39.432;-77.518;2022-09-14T09:45:50;99548.67;;;19.29;41.22
65013;BME280;51715;39.432;-77.518;2022-09-14T09:48:24;99550.62;;;19.42;41.28
65013;BME280;51715;39.432;-77.518;2022-09-14T09:51:04;99554.81;;;19.45;41.20
65013;BME280;51715;39.432;-77.518;2022-09-14T09:53:36;99559.21;;;19.27;41.12
65013;BME280;51715;39.432;-77.518;2022-09-14T09:56:05;99562.73;;;19.49;41.66
65013;BME280;51715;39.432;-77.518;2022-09-14T09:58:36;99567.72;;;19.30;41.44
65013;BME280;51715;39.432;-77.518;2022-09-14T10:01:08;99567.93;;;19.25;41.72
65013;BME280;51715;39.432;-77.518;2022-09-14T10:04:00;99571.45;;;19.26;41.56
65013;BME280;51715;39.432;-77.518;2022-09-14T10:06:28;99572.35;;;19.24;41.60
65013;BME280;51715;39.432;-77.518;2022-09-14T10:08:58;99576.58;;;19.47;41.60
65013;BME280;51715;39.432;-77.518;2022-09-14T10:11:29;99576.13;;;19.48;41.86
65013;BME280;51715;39.432;-77.518;2022-09-14T10:13:59;99581.22;;;19.25;41.67
65013;BME280;51715;39.432;-77.518;2022-09-14T10:16:34;99582.31;;;19.27;41.55
65013;BME280;51715;39.432;-77.518;2022-09-14T10:19:13;99582.69;;;19.20;41.58
65013;BME280;51715;39.432;-77.518;2022-09-14T10:22:02;99579.31;;;19.39;41.39
65013;BME280;51715;39.432;-77.518;2022-09-14T10:24:32;99586.16;;;19.20;41.97
65013;BME280;51715;39.432;-77.518;2022-09-14T10:27:00;99592.72;;;19.11;41.59
65013;BME280;51715;39.432;-77.518;2022-09-14T10:29:37;99600.96;;;19.24;41.43
65013;BME280;51715;39.432;-77.518;2022-09-14T10:32:17;99603.21;;;19.10;41.84
65013;BME280;51715;39.432;-77.518;2022-09-14T10:34:46;99604.00;;;19.37;41.76
65013;BME280;51715;39.432;-77.518;2022-09-14T10:37:22;99608.33;;;19.30;41.47
65013;BME280;51715;39.432;-77.518;2022-09-14T10:40:11;99606.40;;;19.40;41.20
65013;BME280;51715;39.432;-77.518;2022-09-14T10:42:46;99606.08;;;19.44;41.43
65013;BME280;51715;39.432;-77.518;2022-09-14T10:45:22;99609.33;;;19.22;41.13
65013;BME280;51715;39.432;-77.518;2022-09-14T10:48:07;99613.19;;;19.43;41.41
65013;BME280;51715;39.432;-77.518;2022-09-14T10:50:47;99620.61;;;19.40;41.65
65013;BME280;51715;39.432;-77.518;2022-09-14T10:53:33;99625.74;;;19.59;41.52
65013;BME280;51715;39.432;-77.518;2022-09-14T10:56:14;99626.53;;;19.32;41.76
65013;BME280;51715;39.432;-77.518;2022-09-14T10:58:58;99626.55;;;19.31;41.80
65013;BME280;51715;39.432;-77.518;2022-09-14T11:01:39;99629.74;;;19.27;41.86
65013;BME280;51715;39.432;-77.518;2022-09-14T11:04:32;99631.99;;;19.28;41.64
65013;BME280;51715;39.432;-77.518;2022-09-14T11:07:06;99637.09;;;19.28;41.75
65013;BME280;51715;39.432;-77.518;2022-09-14T11:09:41;99638.73;;;19.30;41.54
65013;BME280;51715;39.432;-77.518;2022-09-14T11:12:13;99643.83;;;19.31;41.54
65013;BME280;51715;39.432;-77.518;2022-09-14T11:14:55;99640.67;;;19.33;41.60
65013;BME280;51715;39.432;-77.518;2022-09-14T11:17:46;99641.25;;;19.46;41.57
65013;BME280;51715;39.432;-77.518;2022-09-14T11:20:27;99639.35;;;19.21;41.79
65013;BME280;51715;39.432;-77.518;2022-09-14T11:23:09;99639.55;;;19.34;41.48
65013;BME280;51715;39.432;-77.518;2022-09-14T11:25:45;99640.56;;;19.41;41.46
65013;BME280;51715;39.432;-77.518;2022-09-14T11:28:19;99641.86;;;19.47;41.65
65013;BME280;51715;39.432;-77.518;2022-09-14T11:30:54;99646.94;;;19.28;41.49
65013;BME280;51715;39.432;-77.518;2022-09-14T11:33:26;99647.96;;;19.65;41.47
65013;BME280;51715;39.432;-77.518;2022-09-14T11:36:00;99654.62;;;19.64;41.06
65013;BME280;51715;39.432;-77.518;2022-09-14T11:38:33;99658.00;;;19.51;40.95
65013;BME280;51715;39.432;-77.518;2022-09-14T11:41:10;99660.51;;;19.63;40.90
65013;BME280;51715;39.432;-77.518;2022-09-14T11:43:46;99662.90;;;19.65;40.77
65013;BME280;51715;39.432;-77.518;2022-09-14T11:46:19;99667.80;;;19.55;41.32
65013;BME280;51715;39.432;-77.518;2022-09-14T11:48:55;99670.84;;;19.49;41.61
65013;BME280;51715;39.432;-77.518;2022-09-14T11:51:27;99675.57;;;19.86;41.73
65013;BME280;51715;39.432;-77.518;2022-09-14T11:53:57;99677.11;;;19.61;40.96
65013;BME280;51715;39.432;-77.518;2022-09-14T11:56:28;99682.59;;;19.93;41.47
65013;BME280;51715;39.432;-77.518;2022-09-14T11:58:59;99684.05;;;19.47;41.59
65013;BME280;51715;39.432;-77.518;2022-09-14T12:01:31;99684.28;;;19.77;41.15
65013;BME280;51715;39.432;-77.518;2022-09-14T12:04:11;99690.91;;;20.03;40.67
65013;BME280;51715;39.432;-77.518;2022-09-14T12:06:55;99695.72;;;20.12;40.61
65013;BME280;51715;39.432;-77.518;2022-09-14T12:10:17;99697.35;;;20.41;40.70
65013;BME280;51715;39.432;-77.518;2022-09-14T12:12:48;99705.32;;;20.37;40.59
65013;BME280;51715;39.432;-77.518;2022-09-14T12:15:21;99707.05;;;20.48;40.18
65013;BME280;51715;39.432;-77.518;2022-09-14T12:18:20;99704.48;;;20.78;39.92
65013;BME280;51715;39.432;-77.518;2022-09-14T12:20:59;99709.47;;;20.99;39.88
65013;BME280;51715;39.432;-77.518;2022-09-14T12:23:31;99717.13;;;20.80;39.45
65013;BME280;51715;39.432;-77.518;2022-09-14T12:26:25;99717.83;;;20.96;39.54
65013;BME280;51715;39.432;-77.518;2022-09-14T12:28:56;99719.30;;;20.80;39.18
65013;BME280;51715;39.432;-77.518;2022-09-14T12:31:34;99720.74;;;21.07;39.15
65013;BME280;51715;39.432;-77.518;2022-09-14T12:34:17;99718.02;;;21.18;38.91
65013;BME280;51715;39.432;-77.518;2022-09-14T12:37:32;99717.99;;;21.63;39.30
65013;BME280;51715;39.432;-77.518;2022-09-14T12:40:35;99719.16;;;21.24;39.51
65013;BME280;51715;39.432;-77.518;2022-09-14T12:44:16;99725.29;;;21.78;39.23
65013;BME280;51715;39.432;-77.518;2022-09-14T12:46:56;99727.39;;;21.53;39.28
65013;BME280;51715;39.432;-77.518;2022-09-14T12:49:30;99728.85;;;21.58;38.58
65013;BME280;51715;39.432;-77.518;2022-09-14T12:52:09;99733.03;;;21.28;38.74
65013;BME280;51715;39.432;-77.518;2022-09-14T12:54:52;99726.31;;;21.94;38.32
65013;BME280;51715;39.432;-77.518;2022-09-14T12:57:32;99726.34;;;21.76;38.33
65013;BME280;51715;39.432;-77.518;2022-09-14T13:00:12;99728.28;;;22.01;37.90
65013;BME280;51715;39.432;-77.518;2022-09-14T13:03:02;99730.85;;;21.71;38.11
65013;BME280;51715;39.432;-77.518;2022-09-14T13:05:37;99731.61;;;22.22;37.31
65013;BME280;51715;39.432;-77.518;2022-09-14T13:08:11;99735.58;;;21.74;38.11
65013;BME280;51715;39.432;-77.518;2022-09-14T13:10:46;99735.11;;;22.04;37.80
65013;BME280;51715;39.432;-77.518;2022-09-14T13:13:17;99742.13;;;21.86;38.28
65013;BME280;51715;39.432;-77.518;2022-09-14T13:15:53;99744.40;;;22.04;38.27
65013;BME280;51715;39.432;-77.518;2022-09-14T13:18:29;99749.32;;;22.07;37.77
65013;BME280;51715;39.432;-77.518;2022-09-14T13:20:59;99753.42;;;22.18;37.42
65013;BME280;51715;39.432;-77.518;2022-09-14T13:23:37;99753.13;;;22.43;37.68
65013;BME280;51715;39.432;-77.518;2022-09-14T13:26:09;99753.24;;;22.13;37.44
65013;BME280;51715;39.432;-77.518;2022-09-14T13:28:42;99755.67;;;22.83;36.83
65013;BME280;51715;39.432;-77.518;2022-09-14T13:31:15;99757.33;;;22.72;37.22
65013;BME280;51715;39.432;-77.518;2022-09-14T13:33:50;99761.20;;;22.86;36.37
65013;BME280;51715;39.432;-77.518;2022-09-14T13:36:23;99759.07;;;23.41;36.71
65013;BME280;51715;39.432;-77.518;2022-09-14T13:38:52;99762.47;;;23.57;35.86
65013;BME280;51715;39.432;-77.518;2022-09-14T13:41:23;99770.90;;;23.00;37.48
65013;BME280;51715;39.432;-77.518;2022-09-14T13:43:54;99773.37;;;23.24;35.72
65013;BME280;51715;39.432;-77.518;2022-09-14T13:46:25;99777.38;;;23.97;35.80
65013;BME280;51715;39.432;-77.518;2022-09-14T13:48:55;99773.42;;;24.44;35.75
65013;BME280;51715;39.432;-77.518;2022-09-14T13:51:27;99775.84;;;24.09;35.16
65013;BME280;51715;39.432;-77.518;2022-09-14T13:53:56;99782.65;;;24.23;35.92
65013;BME280;51715;39.432;-77.518;2022-09-14T13:56:28;99787.06;;;24.16;35.01
65013;BME280;51715;39.432;-77.518;2022-09-14T13:59:28;99788.60;;;24.72;33.74
65013;BME280;51715;39.432;-77.518;2022-09-14T14:01:58;99792.43;;;24.00;37.52
65013;BME280;51715;39.432;-77.518;2022-09-14T14:04:31;99787.99;;;24.87;36.56
65013;BME280;51715;39.432;-77.518;2022-09-14T14:07:05;99794.10;;;25.53;33.18
65013;BME280;51715;39.432;-77.518;2022-09-14T14:09:40;99800.35;;;25.92;31.84
65013;BME280;51715;39.432;-77.518;2022-09-14T14:12:18;99799.91;;;25.91;34.72
65013;BME280;51715;39.432;-77.518;2022-09-14T14:14:57;99797.86;;;25.96;33.81
65013;BME280;51715;39.432;-77.518;2022-09-14T14:17:32;99799.23;;;26.35;32.96
65013;BME280;51715;39.432;-77.518;2022-09-14T14:20:32;99802.30;;;25.85;35.38
65013;BME280;51715;39.432;-77.518;2022-09-14T14:23:16;99799.73;;;25.54;35.85
65013;BME280;51715;39.432;-77.518;2022-09-14T14:25:49;99800.30;;;26.23;33.28
65013;BME280;51715;39.432;-77.518;2022-09-14T14:28:22;99797.71;;;26.80;33.02
65013;BME280;51715;39.432;-77.518;2022-09-14T14:30:52;99795.82;;;26.91;32.47
65013;BME280;51715;39.432;-77.518;2022-09-14T14:33:21;99800.34;;;26.48;33.77
65013;BME280;51715;39.432;-77.518;2022-09-14T14:35:51;99802.41;;;26.92;32.22
65013;BME280;51715;39.432;-77.518;2022-09-14T14:38:22;99809.13;;;26.16;34.07
65013;BME280;51715;39.432;-77.518;2022-09-14T14:40:51;99812.09;;;26.63;32.97
65013;BME280;51715;39.432;-77.518;2022-09-14T14:43:23;99817.58;;;25.98;32.88
65013;BME280;51715;39.432;-77.518;2022-09-14T14:45:54;99821.99;;;25.62;34.76
65013;BME280;51715;39.432;-77.518;2022-09-14T14:48:24;99827.50;;;26.65;33.13
65013;BME280;51715;39.432;-77.518;2022-09-14T14:50:53;99827.46;;;26.97;31.75
65013;BME280;51715;39.432;-77.518;2022-09-14T14:53:21;99821.68;;;27.64;31.79
65013;BME280;51715;39.432;-77.518;2022-09-14T14:55:50;99815.76;;;27.94;31.54
65013;BME280;51715;39.432;-77.518;2022-09-14T14:58:20;99821.21;;;28.35;31.72
65013;BME280;51715;39.432;-77.518;2022-09-14T15:00:48;99822.69;;;26.56;32.85
65013;BME280;51715;39.432;-77.518;2022-09-14T15:03:17;99818.75;;;27.69;30.82
65013;BME280;51715;39.432;-77.518;2022-09-14T15:05:47;99815.55;;;28.56;29.89
65013;BME280;51715;39.432;-77.518;2022-09-14T15:08:17;99820.55;;;27.88;31.60
65013;BME280;51715;39.432;-77.518;2022-09-14T15:10:46;99821.76;;;28.94;30.93
65013;BME280;51715;39.432;-77.518;2022-09-14T15:13:14;99820.77;;;28.84;30.54
65013;BME280;51715;39.432;-77.518;2022-09-14T15:15:43;99821.92;;;29.52;28.56
65013;BME280;51715;39.432;-77.518;2022-09-14T15:18:12;99821.86;;;29.41;28.15
65013;BME280;51715;39.432;-77.518;2022-09-14T15:20:41;99821.15;;;29.16;30.71
65013;BME280;51715;39.432;-77.518;2022-09-14T15:23:12;99823.78;;;29.28;30.60
65013;BME280;51715;39.432;-77.518;2022-09-14T15:25:39;99825.41;;;29.64;29.18
65013;BME280;51715;39.432;-77.518;2022-09-14T15:28:07;99821.72;;;29.44;28.27
65013;BME280;51715;39.432;-77.518;2022-09-14T15:30:36;99819.17;;;29.43;31.98
65013;BME280;51715;39.432;-77.518;2022-09-14T15:33:05;99819.49;;;30.04;29.49
65013;BME280;51715;39.432;-77.518;2022-09-14T15:35:34;99821.59;;;30.75;26.98
65013;BME280;51715;39.432;-77.518;2022-09-14T15:38:03;99815.41;;;30.25;28.37
65013;BME280;51715;39.432;-77.518;2022-09-14T15:40:33;99815.37;;;30.27;29.42
65013;BME280;51715;39.432;-77.518;2022-09-14T15:43:02;99809.85;;;29.32;28.71
65013;BME280;51715;39.432;-77.518;2022-09-14T15:45:32;99815.73;;;29.38;29.39
65013;BME280;51715;39.432;-77.518;2022-09-14T15:48:00;99816.97;;;30.06;31.72
65013;BME280;51715;39.432;-77.518;2022-09-14T15:50:29;99819.36;;;30.64;26.93
65013;BME280;51715;39.432;-77.518;2022-09-14T15:52:57;99816.32;;;31.32;27.04
65013;BME280;51715;39.432;-77.518;2022-09-14T15:55:25;99817.53;;;31.59;27.78
65013;BME280;51715;39.432;-77.518;2022-09-14T15:57:54;99819.48;;;31.87;29.14
65013;BME280;51715;39.432;-77.518;2022-09-14T16:00:22;99823.53;;;30.91;29.28
65013;BME280;51715;39.432;-77.518;2022-09-14T16:02:50;99821.96;;;31.55;26.41
65013;BME280;51715;39.432;-77.518;2022-09-14T16:05:18;99822.37;;;31.57;26.57
65013;BME280;51715;39.432;-77.518;2022-09-14T16:07:47;99816.09;;;30.82;27.68
65013;BME280;51715;39.432;-77.518;2022-09-14T16:10:15;99810.31;;;30.95;28.33
65013;BME280;51715;39.432;-77.518;2022-09-14T16:12:43;99813.14;;;30.80;26.93
65013;BME280;51715;39.432;-77.518;2022-09-14T16:15:11;99811.78;;;31.34;25.95
65013;BME280;51715;39.432;-77.518;2022-09-14T16:17:40;99815.86;;;31.45;26.39
65013;BME280;51715;39.432;-77.518;2022-09-14T16:20:08;99817.33;;;31.50;26.21
65013;BME280;51715;39.432;-77.518;2022-09-14T16:22:37;99821.98;;;31.58;24.70
65013;BME280;51715;39.432;-77.518;2022-09-14T16:25:05;99821.73;;;31.39;28.13
65013;BME280;51715;39.432;-77.518;2022-09-14T16:27:34;99814.13;;;31.33;26.61
65013;BME280;51715;39.432;-77.518;2022-09-14T16:30:02;99820.58;;;31.10;27.85
65013;BME280;51715;39.432;-77.518;2022-09-14T16:32:31;99815.12;;;31.42;26.56
65013;BME280;51715;39.432;-77.518;2022-09-14T16:34:59;99811.00;;;30.98;27.00
65013;BME280;51715;39.432;-77.518;2022-09-14T16:37:28;99809.06;;;31.45;26.35
65013;BME280;51715;39.432;-77.518;2022-09-14T16:39:56;99808.96;;;31.65;26.68
65013;BME280;51715;39.432;-77.518;2022-09-14T16:42:25;99804.14;;;31.89;25.49
65013;BME280;51715;39.432;-77.518;2022-09-14T16:44:53;99810.66;;;31.22;25.72
65013;BME280;51715;39.432;-77.518;2022-09-14T16:47:21;99812.31;;;30.05;29.56
65013;BME280;51715;39.432;-77.518;2022-09-14T16:49:50;99811.08;;;30.22;27.25
65013;BME280;51715;39.432;-77.518;2022-09-14T16:52:17;99812.62;;;30.27;26.09
65013;BME280;51715;39.432;-77.518;2022-09-14T16:54:46;99813.44;;;30.33;27.68
65013;BME280;51715;39.432;-77.518;2022-09-14T16:57:13;99814.62;;;30.29;26.65
65013;BME280;51715;39.432;-77.518;2022-09-14T16:59:41;99812.28;;;29.81;27.23
65013;BME280;51715;39.432;-77.518;2022-09-14T17:02:10;99815.91;;;29.37;28.79
65013;BME280;51715;39.432;-77.518;2022-09-14T17:04:38;99816.32;;;29.45;29.99
65013;BME280;51715;39.432;-77.518;2022-09-14T17:07:08;99818.00;;;28.66;30.96
65013;BME280;51715;39.432;-77.518;2022-09-14T17:09:36;99815.87;;;28.70;31.31
65013;BME280;51715;39.432;-77.518;2022-09-14T17:12:05;99821.71;;;28.67;29.97